createdAt,value
2022-08-12T00:00:11.318Z,5.53
2022-08-12T00:03:17.759Z,7.47
2022-08-12T00:06:09.378Z,7.07
2022-08-12T00:08:57.586Z,6.67
2022-08-12T00:11:46.471Z,11.82
2022-08-12T00:14:33.758Z,5.45
2022-08-12T00:17:23.085Z,6.25
2022-08-12T00:20:10.362Z,5.75
2022-08-12T00:22:58.955Z,7.03
2022-08-12T00:26:23.041Z,8.50
2022-08-12T00:29:09.182Z,6.95
2022-08-12T00:31:55.886Z,10.35
2022-08-12T00:34:42.620Z,8.05
2022-08-12T00:37:28.750Z,5.70
2022-08-12T00:40:15.806Z,7.82
2022-08-12T00:42:43.770Z,6.10
2022-08-12T00:45:11.793Z,5.82
2022-08-12T00:47:41.194Z,5.82
2022-08-12T00:50:18.012Z,6.57
2022-08-12T00:52:48.218Z,6.65
2022-08-12T00:55:17.008Z,5.90
2022-08-12T00:57:48.278Z,7.05
2022-08-12T01:00:18.812Z,8.30
2022-08-12T01:02:51.999Z,5.80
2022-08-12T01:05:41.003Z,5.70
2022-08-12T01:08:28.128Z,7.18
2022-08-12T01:11:15.655Z,6.75
2022-08-12T01:13:53.229Z,7.43
2022-08-12T01:16:24.806Z,5.80
2022-08-12T01:18:55.679Z,7.35
2022-08-12T01:21:48.827Z,6.90
2022-08-12T01:24:58.876Z,5.72
2022-08-12T01:27:29.316Z,5.82
2022-08-12T01:30:00.225Z,7.07
2022-08-12T01:32:29.444Z,7.00
2022-08-12T01:35:24.180Z,7.75
2022-08-12T01:38:03.214Z,6.18
2022-08-12T01:40:37.934Z,6.00
2022-08-12T01:43:10.377Z,5.93
2022-08-12T01:46:00.081Z,6.25
2022-08-12T01:48:43.810Z,9.57
2022-08-12T01:52:15.980Z,8.32
2022-08-12T01:54:42.180Z,8.05
2022-08-12T01:57:15.849Z,9.13
2022-08-12T02:00:08.513Z,7.15
2022-08-12T02:03:02.337Z,5.20
2022-08-12T02:05:54.855Z,5.97
2022-08-12T02:09:14.653Z,6.10
2022-08-12T02:12:08.387Z,7.10
2022-08-12T02:15:03.604Z,7.25
2022-08-12T02:17:55.543Z,8.20
2022-08-12T02:20:51.928Z,7.28
2022-08-12T02:23:28.333Z,8.50
2022-08-12T02:26:01.713Z,9.53
2022-08-12T02:28:30.591Z,6.13
2022-08-12T02:31:05.110Z,8.23
2022-08-12T02:33:34.589Z,8.10
2022-08-12T02:36:03.408Z,8.52
2022-08-12T02:38:32.263Z,5.80
2022-08-12T02:41:04.280Z,7.03
2022-08-12T02:43:45.841Z,8.93
2022-08-12T02:46:16.022Z,7.85
2022-08-12T02:49:01.239Z,7.32
2022-08-12T02:51:37.149Z,5.73
2022-08-12T02:54:07.617Z,7.75
2022-08-12T02:56:50.402Z,7.63
2022-08-12T02:59:23.079Z,7.78
2022-08-12T03:01:53.864Z,7.18
2022-08-12T03:04:33.143Z,7.93
2022-08-12T03:07:13.121Z,6.38
2022-08-12T03:10:15.853Z,5.97
2022-08-12T03:12:49.516Z,5.55
2022-08-12T03:15:23.101Z,7.93
2022-08-12T03:18:23.645Z,6.17
2022-08-12T03:20:45.958Z,8.27
2022-08-12T03:23:21.553Z,7.38
2022-08-12T03:26:02.891Z,7.57
2022-08-12T03:28:52.084Z,9.75
2022-08-12T03:31:26.237Z,10.40
2022-08-12T03:34:01.572Z,8.18
2022-08-12T03:36:35.819Z,7.45
2022-08-12T03:39:19.131Z,8.00
2022-08-12T03:41:59.389Z,8.43
2022-08-12T03:45:13.970Z,7.20
2022-08-12T03:48:29.432Z,8.68
2022-08-12T03:51:17.221Z,7.45
2022-08-12T03:54:03.861Z,7.70
2022-08-12T03:56:52.084Z,7.53
2022-08-12T03:59:38.748Z,7.93
2022-08-12T04:02:08.404Z,10.20
2022-08-12T04:04:36.373Z,9.13
2022-08-12T04:07:10.050Z,12.00
2022-08-12T04:09:43.626Z,7.45
2022-08-12T04:12:32.758Z,8.40
2022-08-12T04:15:02.439Z,10.15
2022-08-12T04:17:31.726Z,7.63
2022-08-12T04:20:00.274Z,10.02
2022-08-12T04:22:31.030Z,6.95
2022-08-12T04:25:01.767Z,6.87
2022-08-12T04:27:32.261Z,12.50
2022-08-12T04:30:30.487Z,7.57
2022-08-12T04:32:50.805Z,6.68
2022-08-12T04:35:19.149Z,8.20
2022-08-12T04:37:58.220Z,7.30
2022-08-12T04:40:31.274Z,7.93
2022-08-12T04:43:01.744Z,8.80
2022-08-12T04:45:33.351Z,8.52
2022-08-12T04:48:02.807Z,8.20
2022-08-12T04:50:36.284Z,9.63
2022-08-12T04:53:09.360Z,11.10
2022-08-12T04:55:38.820Z,9.63
2022-08-12T04:58:08.057Z,12.85
2022-08-12T05:00:37.174Z,8.85
2022-08-12T05:03:07.521Z,10.07
2022-08-12T05:05:37.289Z,10.90
2022-08-12T05:08:10.672Z,8.73
2022-08-12T05:10:38.813Z,11.45
2022-08-12T05:13:11.421Z,11.32
2022-08-12T05:16:02.477Z,16.67
2022-08-12T05:18:29.691Z,16.58
2022-08-12T05:20:59.816Z,17.65
2022-08-12T05:23:28.461Z,19.60
2022-08-12T05:25:57.444Z,15.40
2022-08-12T05:28:27.531Z,10.20
2022-08-12T05:30:57.010Z,15.02
2022-08-12T05:33:26.872Z,14.73
2022-08-12T05:35:54.641Z,12.02
2022-08-12T05:38:40.947Z,10.18
2022-08-12T05:41:20.763Z,12.63
2022-08-12T05:43:51.290Z,14.57
2022-08-12T05:46:21.049Z,17.63
2022-08-12T05:48:54.615Z,12.57
2022-08-12T05:51:40.925Z,10.90
2022-08-12T05:54:11.724Z,9.60
2022-08-12T05:56:41.873Z,9.93
2022-08-12T05:59:11.547Z,8.05
2022-08-12T06:02:12.346Z,10.38
2022-08-12T06:04:28.998Z,6.82
2022-08-12T06:06:57.112Z,7.37
2022-08-12T06:09:26.791Z,7.68
2022-08-12T06:12:04.723Z,8.65
2022-08-12T06:14:37.879Z,5.93
2022-08-12T06:17:09.595Z,10.25
2022-08-12T06:20:26.025Z,9.43
2022-08-12T06:22:27.169Z,6.43
2022-08-12T06:24:55.072Z,7.72
2022-08-12T06:27:23.367Z,8.45
2022-08-12T06:30:09.104Z,8.50
2022-08-12T06:32:51.615Z,8.40
2022-08-12T06:35:49.402Z,6.97
2022-08-12T06:38:21.912Z,8.52
2022-08-12T06:41:12.065Z,7.45
2022-08-12T06:44:04.462Z,6.22
2022-08-12T06:46:31.056Z,6.33
2022-08-12T06:48:59.723Z,7.25
2022-08-12T06:51:29.439Z,5.47
2022-08-12T06:53:59.469Z,6.40
2022-08-12T06:56:59.585Z,5.38
2022-08-12T06:59:16.225Z,5.43
2022-08-12T07:01:51.315Z,7.72
2022-08-12T07:04:38.744Z,6.10
2022-08-12T07:07:09.849Z,4.80
2022-08-12T07:10:04.298Z,7.30
2022-08-12T07:12:32.458Z,6.80
2022-08-12T07:15:02.432Z,6.57
2022-08-12T07:17:36.651Z,15.20
2022-08-12T07:20:20.254Z,4.97
2022-08-12T07:22:59.249Z,5.28
2022-08-12T07:25:40.996Z,7.87
2022-08-12T07:28:14.243Z,5.60
2022-08-12T07:30:49.555Z,7.60
2022-08-12T07:33:19.373Z,6.43
2022-08-12T07:35:48.606Z,6.18
2022-08-12T07:38:31.810Z,5.07
2022-08-12T07:41:15.792Z,6.13
2022-08-12T07:43:50.096Z,6.95
2022-08-12T07:46:24.641Z,5.25
2022-08-12T07:48:56.984Z,6.68
2022-08-12T07:51:26.003Z,6.53
2022-08-12T07:54:00.770Z,6.90
2022-08-12T07:56:31.860Z,5.47
2022-08-12T07:59:01.452Z,7.28
2022-08-12T08:01:30.661Z,7.70
2022-08-12T08:04:19.387Z,6.80
2022-08-12T08:06:49.066Z,6.88
2022-08-12T08:09:19.248Z,7.40
2022-08-12T08:12:05.948Z,5.35
2022-08-12T08:14:34.301Z,5.90
2022-08-12T08:17:03.744Z,6.80
2022-08-12T08:20:02.035Z,6.05
2022-08-12T08:22:25.701Z,5.07
2022-08-12T08:25:34.880Z,8.90
2022-08-12T08:28:05.139Z,5.03
2022-08-12T08:30:33.778Z,8.00
2022-08-12T08:33:01.732Z,5.75
2022-08-12T08:35:46.483Z,6.13
2022-08-12T08:38:31.772Z,5.65
2022-08-12T08:42:17.158Z,5.07
2022-08-12T08:44:11.434Z,8.50
2022-08-12T08:46:40.894Z,6.20
2022-08-12T08:49:08.810Z,5.88
2022-08-12T08:51:39.270Z,5.38
2022-08-12T08:54:09.022Z,7.38
2022-08-12T08:56:52.667Z,6.13
2022-08-12T08:59:22.400Z,6.90
2022-08-12T09:01:50.214Z,4.57
2022-08-12T09:05:09.475Z,6.10
2022-08-12T09:10:03.672Z,4.50
2022-08-12T09:12:54.770Z,8.00
2022-08-12T09:15:35.632Z,5.40
2022-08-12T09:20:54.365Z,26.15
2022-08-12T09:23:59.455Z,15.20
2022-08-12T09:26:10.391Z,5.55
2022-08-12T09:28:39.512Z,6.13
2022-08-12T09:32:03.728Z,8.07
2022-08-12T09:34:25.523Z,5.80
2022-08-12T09:37:00.202Z,4.63
2022-08-12T09:40:06.209Z,5.88
2022-08-12T09:42:54.059Z,6.75
2022-08-12T09:46:11.215Z,6.43
2022-08-12T09:48:20.428Z,5.38
2022-08-12T09:50:55.586Z,3.77
2022-08-12T09:53:35.932Z,4.25
2022-08-12T09:56:58.682Z,6.88
2022-08-12T09:59:01.339Z,4.03
2022-08-12T10:01:35.392Z,5.00
2022-08-12T10:04:19.092Z,7.23
2022-08-12T10:06:54.298Z,6.15
2022-08-12T10:09:28.633Z,4.80
2022-08-12T10:12:33.482Z,5.95
2022-08-12T10:15:02.459Z,4.03
2022-08-12T10:17:30.649Z,7.43
2022-08-12T10:19:59.907Z,4.07
2022-08-12T10:22:36.707Z,3.95
2022-08-12T10:26:34.884Z,4.57
2022-08-12T10:28:34.367Z,5.15
2022-08-12T10:31:05.348Z,6.47
2022-08-12T10:33:54.100Z,4.72
2022-08-12T10:36:36.130Z,4.60
2022-08-12T10:40:03.200Z,5.68
2022-08-12T10:42:29.414Z,3.60
2022-08-12T10:45:04.334Z,3.67
2022-08-12T10:48:07.447Z,4.90
2022-08-12T10:50:29.579Z,6.72
2022-08-12T10:53:08.995Z,6.90
2022-08-12T10:55:37.301Z,4.88
2022-08-12T10:58:14.659Z,5.20
2022-08-12T11:01:26.004Z,4.63
2022-08-12T11:04:27.372Z,3.40
2022-08-12T11:07:10.202Z,5.13
2022-08-12T11:09:54.340Z,4.95
2022-08-12T11:12:54.682Z,5.67
2022-08-12T11:14:58.668Z,12.15
2022-08-12T11:17:43.020Z,5.55
2022-08-12T11:20:15.379Z,5.28
2022-08-12T11:22:58.578Z,4.50
2022-08-12T11:25:36.005Z,4.53
2022-08-12T11:28:16.308Z,6.80
2022-08-12T11:30:44.983Z,4.22
2022-08-12T11:33:24.034Z,5.38
2022-08-12T11:36:14.658Z,6.07
2022-08-12T11:38:43.317Z,4.60
2022-08-12T11:41:28.000Z,4.60
2022-08-12T11:44:30.658Z,4.00
2022-08-12T11:46:52.985Z,5.03
2022-08-12T11:49:31.719Z,5.40
2022-08-12T11:52:02.352Z,6.23
2022-08-12T11:54:31.684Z,4.68
2022-08-12T11:57:02.337Z,4.95
2022-08-12T12:02:21.490Z,7.57
2022-08-12T12:04:53.980Z,5.13
2022-08-12T12:08:36.007Z,5.00
2022-08-12T12:10:14.249Z,6.15
2022-08-12T12:12:49.536Z,4.90
2022-08-12T12:15:25.379Z,5.28
2022-08-12T12:18:07.221Z,6.07
2022-08-12T12:20:35.585Z,5.97
2022-08-12T12:23:04.256Z,4.53
2022-08-12T12:25:59.596Z,3.83
2022-08-12T12:28:37.131Z,5.88
2022-08-12T12:31:15.066Z,5.07
2022-08-12T12:33:58.149Z,4.35
2022-08-12T12:36:29.913Z,5.10
2022-08-12T12:38:59.921Z,5.00
2022-08-12T12:42:43.856Z,3.30
2022-08-12T12:44:25.806Z,4.60
2022-08-12T12:46:58.242Z,5.75
2022-08-12T12:49:27.572Z,4.45
2022-08-12T12:52:18.893Z,3.90
2022-08-12T12:54:53.095Z,4.35
2022-08-12T12:57:21.560Z,4.80
2022-08-12T13:00:16.507Z,7.60
2022-08-12T13:02:53.609Z,3.67
2022-08-12T13:05:42.674Z,4.25
2022-08-12T13:08:27.856Z,4.75
2022-08-12T13:11:04.415Z,5.93
2022-08-12T13:14:07.880Z,4.25
2022-08-12T13:16:23.511Z,3.58
2022-08-12T13:18:53.562Z,3.40
2022-08-12T13:21:33.052Z,3.70
2022-08-12T13:24:09.968Z,7.80
2022-08-12T13:26:40.531Z,6.28
2022-08-12T13:29:11.221Z,4.35
2022-08-12T13:31:46.342Z,3.40
2022-08-12T13:34:34.183Z,5.22
2022-08-12T13:37:09.732Z,4.50
2022-08-12T13:39:39.547Z,4.47
2022-08-12T13:42:13.578Z,4.00
2022-08-12T13:44:44.104Z,5.25
2022-08-12T13:47:19.743Z,3.80
2022-08-12T13:49:53.611Z,4.93
2022-08-12T13:52:25.562Z,6.35
2022-08-12T13:54:56.542Z,4.35
2022-08-12T13:57:26.714Z,4.93
2022-08-12T14:00:00.671Z,4.20
2022-08-12T14:02:39.854Z,4.47
2022-08-12T14:05:38.146Z,4.50
2022-08-12T14:08:01.682Z,3.80
2022-08-12T14:10:37.701Z,6.72
2022-08-12T14:13:16.967Z,4.20
2022-08-12T14:16:03.307Z,7.70
2022-08-12T14:18:39.966Z,4.25
2022-08-12T14:21:12.304Z,4.13
2022-08-12T14:24:05.158Z,6.15
2022-08-12T14:26:38.969Z,3.33
2022-08-12T14:29:08.031Z,4.00
2022-08-12T14:31:40.686Z,3.60
2022-08-12T14:34:11.780Z,5.13
2022-08-12T14:36:40.779Z,4.07
2022-08-12T14:39:10.450Z,5.70
2022-08-12T14:41:48.478Z,5.90
2022-08-12T14:44:57.287Z,4.05
2022-08-12T14:47:13.736Z,3.28
2022-08-12T14:50:33.968Z,4.35
2022-08-12T14:52:57.720Z,3.10
2022-08-12T14:58:08.404Z,4.13
2022-08-12T15:00:56.116Z,3.90
2022-08-12T15:03:52.952Z,8.65
2022-08-12T15:06:39.046Z,7.30
2022-08-12T15:09:07.254Z,3.53
2022-08-12T15:11:54.275Z,4.80
2022-08-12T15:14:30.167Z,4.30
2022-08-12T15:17:00.710Z,3.97
2022-08-12T15:20:11.620Z,4.97
2022-08-12T15:22:38.834Z,5.00
2022-08-12T15:25:07.977Z,4.53
2022-08-12T15:28:04.779Z,4.65
2022-08-12T15:30:32.342Z,11.43
2022-08-12T15:33:14.799Z,4.43
2022-08-12T15:35:50.480Z,4.67
2022-08-12T15:38:31.656Z,3.67
2022-08-12T15:41:01.637Z,6.47
2022-08-12T15:43:51.580Z,2.78
2022-08-12T15:46:21.166Z,5.40
2022-08-12T15:48:53.911Z,4.13
2022-08-12T15:51:59.922Z,5.60
2022-08-12T15:54:34.369Z,7.25
2022-08-12T15:57:08.214Z,9.35
2022-08-12T16:00:00.710Z,5.07
2022-08-12T16:02:50.105Z,5.53
2022-08-12T16:06:12.068Z,7.18
2022-08-12T16:08:18.478Z,3.92
2022-08-12T16:10:53.455Z,4.05
2022-08-12T16:13:34.334Z,3.60
2022-08-12T16:16:22.922Z,3.47
2022-08-12T16:19:00.706Z,5.28
2022-08-12T16:21:51.590Z,6.45
2022-08-12T16:24:20.981Z,7.00
2022-08-12T16:26:51.295Z,7.22
2022-08-12T16:29:52.009Z,4.90
2022-08-12T16:32:24.623Z,6.40
2022-08-12T16:35:01.585Z,4.85
2022-08-12T16:38:04.849Z,7.95
2022-08-12T16:40:19.633Z,4.50
2022-08-12T16:42:53.624Z,6.80
2022-08-12T16:45:58.204Z,13.98
2022-08-12T16:48:34.243Z,7.00
2022-08-12T16:51:09.653Z,94.78
2022-08-12T16:53:44.523Z,105.20
2022-08-12T16:56:17.142Z,636.47
2022-08-12T16:58:47.451Z,551.05
2022-08-12T17:01:16.758Z,341.77
2022-08-12T17:04:08.095Z,211.88
2022-08-12T17:06:41.815Z,139.50
2022-08-12T17:09:17.616Z,97.03
2022-08-12T17:11:49.626Z,54.25
2022-08-12T17:14:23.000Z,26.50
2022-08-12T17:16:55.582Z,24.25
2022-08-12T17:20:30.651Z,27.60
2022-08-12T17:22:21.607Z,20.73
2022-08-12T17:24:55.858Z,18.15
2022-08-12T17:27:30.770Z,19.05
2022-08-12T17:30:03.753Z,15.93
2022-08-12T17:32:35.331Z,16.23
2022-08-12T17:35:30.206Z,12.10
2022-08-12T17:38:11.883Z,13.02
2022-08-12T17:40:43.060Z,7.53
2022-08-12T17:43:54.659Z,11.27
2022-08-12T17:47:02.889Z,10.88
2022-08-12T17:50:01.819Z,12.47
2022-08-12T17:52:23.549Z,11.52
2022-08-12T17:55:03.554Z,6.13
2022-08-12T17:57:35.225Z,8.52
2022-08-12T18:00:14.344Z,6.45
2022-08-12T18:02:42.826Z,7.10
2022-08-12T18:05:10.878Z,7.28
2022-08-12T18:07:39.600Z,5.43
2022-08-12T18:10:09.466Z,6.28
2022-08-12T18:12:50.805Z,5.15
2022-08-12T18:15:26.278Z,5.87
2022-08-12T18:18:17.420Z,3.38
2022-08-12T18:20:48.170Z,4.70
2022-08-12T18:23:23.808Z,4.70
2022-08-12T18:26:17.669Z,8.52
2022-08-12T18:28:48.217Z,4.30
2022-08-12T18:31:23.882Z,5.88
2022-08-12T18:33:52.707Z,5.47
2022-08-12T18:36:22.630Z,5.82
2022-08-12T18:38:59.525Z,11.93
2022-08-12T18:41:34.380Z,9.07
2022-08-12T18:44:10.588Z,13.25
2022-08-12T18:46:47.595Z,13.32
2022-08-12T18:49:26.657Z,15.73
2022-08-12T18:52:02.345Z,9.15
2022-08-12T18:54:35.814Z,12.67
2022-08-12T18:57:16.381Z,12.18
2022-08-12T19:00:01.744Z,14.18
2022-08-12T19:02:39.964Z,25.70
2022-08-12T19:05:11.560Z,38.70
2022-08-12T19:08:00.337Z,54.10
2022-08-12T19:10:32.772Z,48.75
2022-08-12T19:13:24.757Z,41.80
2022-08-12T19:15:58.128Z,42.97
2022-08-12T19:18:31.932Z,54.25
2022-08-12T19:21:11.762Z,52.07
2022-08-12T19:23:44.558Z,44.92
2022-08-12T19:26:13.321Z,35.90
2022-08-12T19:28:42.627Z,39.67
2022-08-12T19:31:56.593Z,63.55
2022-08-12T19:37:22.737Z,34.45
2022-08-12T19:40:09.520Z,25.88
2022-08-12T19:42:53.307Z,21.65
2022-08-12T19:45:22.944Z,20.65
2022-08-12T19:47:51.357Z,9.50
2022-08-12T19:50:20.631Z,9.93
2022-08-12T19:52:51.394Z,10.27
2022-08-12T19:55:26.690Z,7.53
2022-08-12T19:58:02.489Z,7.07
2022-08-12T20:00:34.903Z,6.60
2022-08-12T20:03:05.528Z,5.93
2022-08-12T20:06:07.186Z,8.35
2022-08-12T20:08:27.916Z,10.60
2022-08-12T20:12:11.083Z,6.15
2022-08-12T20:14:00.963Z,11.30
2022-08-12T20:16:56.292Z,12.32
2022-08-12T20:19:52.344Z,8.60
2022-08-12T20:22:24.531Z,10.48
2022-08-12T20:25:01.549Z,8.68
2022-08-12T20:28:03.242Z,11.03
2022-08-12T20:30:52.604Z,9.50
2022-08-12T20:33:17.770Z,7.90
2022-08-12T20:36:13.143Z,8.27
2022-08-12T20:38:39.954Z,8.50
2022-08-12T20:41:16.826Z,8.00
2022-08-12T20:43:50.626Z,7.35
2022-08-12T20:46:20.366Z,8.25
2022-08-12T20:48:55.172Z,7.97
2022-08-12T20:51:50.974Z,7.57
2022-08-12T20:54:18.101Z,8.53
2022-08-12T20:56:47.494Z,7.72
2022-08-12T20:59:20.259Z,10.02
2022-08-12T21:01:53.892Z,15.45
2022-08-12T21:04:43.942Z,10.38
2022-08-12T21:07:14.557Z,9.77
2022-08-12T21:09:50.036Z,12.48
2022-08-12T21:12:30.912Z,7.43
2022-08-12T21:15:23.078Z,11.25
2022-08-12T21:18:08.886Z,14.50
2022-08-12T21:20:53.119Z,12.00
2022-08-12T21:23:23.427Z,9.85
2022-08-12T21:25:56.503Z,11.40
2022-08-12T21:28:30.854Z,8.95
2022-08-12T21:32:35.440Z,8.63
2022-08-12T21:34:07.063Z,9.27
2022-08-12T21:36:48.450Z,8.25
2022-08-12T21:39:21.844Z,8.32
2022-08-12T21:41:52.466Z,8.95
2022-08-12T21:45:43.877Z,8.20
2022-08-12T21:47:22.299Z,11.87
2022-08-12T21:50:04.253Z,11.27
2022-08-12T21:52:43.651Z,10.93
2022-08-12T21:55:19.971Z,12.95
2022-08-12T21:57:54.316Z,10.80
2022-08-12T22:00:34.614Z,9.77
2022-08-12T22:04:02.937Z,12.57
2022-08-12T22:06:30.566Z,11.07
2022-08-12T22:09:11.283Z,15.52
2022-08-12T22:11:56.611Z,9.23
2022-08-12T22:14:29.511Z,9.23
2022-08-12T22:17:00.361Z,15.13
2022-08-12T22:19:28.899Z,11.60
2022-08-12T22:22:04.001Z,14.55
2022-08-12T22:24:33.971Z,15.65
2022-08-12T22:27:08.008Z,14.37
2022-08-12T22:30:15.974Z,11.85
2022-08-12T22:32:50.231Z,11.93
2022-08-12T22:35:56.153Z,15.07
2022-08-12T22:38:24.274Z,14.30
2022-08-12T22:40:55.984Z,16.27
2022-08-12T22:43:56.372Z,11.60
2022-08-12T22:46:52.450Z,15.13
2022-08-12T22:49:37.135Z,11.30
2022-08-12T22:52:18.632Z,12.07
2022-08-12T22:55:02.725Z,13.93
2022-08-12T22:57:49.769Z,9.55
2022-08-12T23:00:24.594Z,7.30
2022-08-12T23:03:00.844Z,17.15
2022-08-12T23:05:56.685Z,16.98
2022-08-12T23:08:30.046Z,17.40
2022-08-12T23:11:05.933Z,19.75
2022-08-12T23:13:55.978Z,14.85
2022-08-12T23:16:31.854Z,15.82
2022-08-12T23:19:09.718Z,13.32
2022-08-12T23:22:05.526Z,10.30
2022-08-12T23:24:54.155Z,7.68
2022-08-12T23:27:50.354Z,9.93
2022-08-12T23:30:31.191Z,9.60
2022-08-12T23:33:01.785Z,8.38
2022-08-12T23:35:54.098Z,14.20
2022-08-12T23:38:30.575Z,9.38
2022-08-12T23:41:02.030Z,8.55
2022-08-12T23:43:39.524Z,7.95
2022-08-12T23:46:19.243Z,8.32
2022-08-12T23:48:51.762Z,10.30
2022-08-12T23:51:24.754Z,9.95
2022-08-12T23:54:07.516Z,11.52
2022-08-12T23:56:40.032Z,8.13
2022-08-12T23:59:14.008Z,7.15
